Time;durP1;ratioP1;P1;durP2;ratioP2;P2;SDS_P1;SDS_P2;PMS_P1;PMS_P2;Temp;Humidity;BMP_temperature;BMP_pressure;BME280_temperature;BME280_humidity;BME280_pressure;Samples;Min_cycle;Max_cycle;Signal;HPM_P1;HPM_P2
2023/04/20 00:00:16;;;;;;;0.20;0.20;;;12.00;65.20;;;;;;5095697;28;20081;-79
2023/04/20 00:02:42;;;;;;;0.52;0.52;;;12.00;65.50;;;;;;5083859;28;20039;-79
2023/04/20 00:05:09;;;;;;;0.10;0.10;;;11.90;65.90;;;;;;5102375;28;20127;-79
2023/04/20 00:07:35;;;;;;;0.30;0.30;;;11.80;66.10;;;;;;5088064;28;20123;-79
2023/04/20 00:10:02;;;;;;;0.20;0.20;;;11.80;66.60;;;;;;5101543;28;20031;-79
2023/04/20 00:12:28;;;;;;;1.70;1.38;;;11.60;67.10;;;;;;5101887;28;20075;-79
2023/04/20 00:14:54;;;;;;;0.20;0.20;;;11.60;67.40;;;;;;5084536;28;20134;-79
2023/04/20 00:17:20;;;;;;;1.83;0.40;;;11.60;67.60;;;;;;5101159;28;20551;-79
2023/04/20 00:19:46;;;;;;;0.28;0.28;;;11.60;68.00;;;;;;5079986;28;20036;-79
2023/04/20 00:22:12;;;;;;;0.20;0.20;;;11.60;69.00;;;;;;5081772;28;20116;-80
2023/04/20 00:24:38;;;;;;;1.15;0.60;;;11.80;69.00;;;;;;5101752;28;20062;-79
2023/04/20 00:27:04;;;;;;;0.15;0.15;;;11.90;69.10;;;;;;5083392;28;21015;-78
2023/04/20 00:29:30;;;;;;;1.00;0.52;;;11.80;69.40;;;;;;5102311;28;20058;-78
2023/04/20 00:31:55;;;;;;;0.20;0.20;;;11.80;69.80;;;;;;5101145;28;20126;-78
2023/04/20 00:34:21;;;;;;;0.10;0.10;;;11.70;69.90;;;;;;5101829;28;20028;-79
2023/04/20 00:36:46;;;;;;;2.17;1.30;;;11.70;69.80;;;;;;5101028;28;20028;-78
2023/04/20 00:39:12;;;;;;;3.70;0.95;;;11.70;70.00;;;;;;5095981;28;20103;-78
2023/04/20 00:41:38;;;;;;;0.10;0.10;;;11.50;70.50;;;;;;5099429;28;20066;-78
2023/04/20 00:44:06;;;;;;;0.35;0.35;;;11.50;71.00;;;;;;5101637;28;20031;-79
2023/04/20 00:46:32;;;;;;;0.10;0.10;;;11.40;71.20;;;;;;5082742;28;20054;-79
2023/04/20 00:48:59;;;;;;;0.10;0.10;;;11.40;71.50;;;;;;5102381;28;20031;-79
2023/04/20 00:51:25;;;;;;;0.10;0.10;;;11.30;72.10;;;;;;5083616;28;20032;-79
2023/04/20 00:53:51;;;;;;;0.10;0.10;;;11.20;72.40;;;;;;5100693;28;20423;-79
2023/04/20 00:56:18;;;;;;;0.10;0.10;;;11.10;73.00;;;;;;5083105;28;20036;-78
2023/04/20 00:58:45;;;;;;;0.20;0.20;;;11.00;73.30;;;;;;5099936;28;20024;-79
2023/04/20 01:01:10;;;;;;;;;;;10.80;74.10;;;;;;5097916;28;20031;-78
2023/04/20 01:03:37;;;;;;;0.10;0.10;;;10.90;74.20;;;;;;5101513;28;20456;-77
2023/04/20 01:06:03;;;;;;;0.10;0.10;;;10.80;74.60;;;;;;5079285;28;20024;-78
2023/04/20 01:08:29;;;;;;;0.47;0.47;;;10.80;74.60;;;;;;5094184;28;20107;-79
2023/04/20 01:10:55;;;;;;;0.10;0.10;;;10.80;74.60;;;;;;5099191;28;20050;-79
2023/04/20 01:13:20;;;;;;;0.28;0.28;;;10.80;74.80;;;;;;5101307;28;20038;-79
2023/04/20 01:15:46;;;;;;;0.10;0.10;;;10.90;75.10;;;;;;5083105;28;20039;-79
2023/04/20 01:18:12;;;;;;;0.80;0.32;;;10.80;75.30;;;;;;5080058;28;20040;-79
2023/04/20 01:20:38;;;;;;;0.10;0.10;;;10.80;76.30;;;;;;5077608;28;20028;-79
2023/04/20 01:23:04;;;;;;;0.82;0.47;;;10.70;75.70;;;;;;5104967;28;20038;-79
2023/04/20 01:25:30;;;;;;;0.10;0.10;;;10.80;75.60;;;;;;5105800;28;20027;-79
2023/04/20 01:27:55;;;;;;;0.15;0.15;;;10.80;75.80;;;;;;5085018;28;20032;-79
2023/04/20 01:30:21;;;;;;;0.30;0.30;;;10.60;76.50;;;;;;5084537;28;20942;-79
2023/04/20 01:32:47;;;;;;;0.10;0.10;;;10.70;76.70;;;;;;5086167;28;20051;-79
2023/04/20 01:35:13;;;;;;;0.50;0.50;;;10.70;77.10;;;;;;5104727;28;20031;-79
2023/04/20 01:37:39;;;;;;;0.10;0.10;;;10.70;77.40;;;;;;5105493;28;20023;-80
2023/04/20 01:40:08;;;;;;;2.85;0.88;;;10.50;77.90;;;;;;5095066;28;20027;-80
2023/04/20 01:42:34;;;;;;;1.05;1.05;;;10.50;78.20;;;;;;5105370;28;20031;-79
2023/04/20 01:45:00;;;;;;;0.10;0.10;;;10.50;78.40;;;;;;5105402;28;20027;-79
2023/04/20 01:47:26;;;;;;;0.60;0.60;;;10.50;78.60;;;;;;5105698;27;20554;-78
2023/04/20 01:49:51;;;;;;;0.55;0.55;;;10.50;78.60;;;;;;5103999;28;20105;-79
2023/04/20 01:52:17;;;;;;;0.10;0.10;;;10.40;79.00;;;;;;5104440;28;20455;-79
2023/04/20 01:54:43;;;;;;;0.10;0.10;;;10.40;79.50;;;;;;5104428;28;20027;-79
2023/04/20 01:57:09;;;;;;;0.40;0.40;;;10.30;79.80;;;;;;5098853;28;20123;-79
2023/04/20 01:59:34;;;;;;;0.10;0.10;;;10.20;80.60;;;;;;5086257;28;20029;-78
2023/04/20 02:02:00;;;;;;;0.20;0.20;;;10.00;81.10;;;;;;5104356;27;20053;-78
2023/04/20 02:04:26;;;;;;;0.13;0.13;;;10.10;81.10;;;;;;5086262;28;20023;-78
2023/04/20 02:06:51;;;;;;;0.57;0.57;;;10.10;81.30;;;;;;5103463;28;20131;-78
2023/04/20 02:09:17;;;;;;;0.15;0.15;;;9.70;83.50;;;;;;5085020;28;20027;-78
2023/04/20 02:11:43;;;;;;;0.10;0.10;;;9.80;83.60;;;;;;5104278;28;20699;-78
2023/04/20 02:14:08;;;;;;;0.20;0.20;;;9.70;83.40;;;;;;5078067;28;20031;-79
2023/04/20 02:16:35;;;;;;;0.80;0.80;;;9.70;83.50;;;;;;5103495;28;20751;-78
2023/04/20 02:19:01;;;;;;;0.15;0.15;;;9.50;83.50;;;;;;5084516;28;20157;-78
2023/04/20 02:21:27;;;;;;;0.15;0.15;;;9.60;84.20;;;;;;5104408;27;20118;-78
2023/04/20 02:23:53;;;;;;;0.90;0.40;;;9.70;83.30;;;;;;5085321;28;20084;-78
2023/04/20 02:26:19;;;;;;;0.28;0.28;;;9.50;84.00;;;;;;5085232;28;20031;-78
2023/04/20 02:28:45;;;;;;;0.28;0.28;;;9.30;84.90;;;;;;5103397;28;20023;-78
2023/04/20 02:31:11;;;;;;;0.57;0.57;;;9.30;84.90;;;;;;5103056;28;20056;-79
2023/04/20 02:33:36;;;;;;;1.90;0.85;;;9.20;85.90;;;;;;5085397;28;20044;-79
2023/04/20 02:36:02;;;;;;;0.10;0.10;;;9.10;86.90;;;;;;5103337;27;20031;-78
2023/04/20 02:38:28;;;;;;;0.40;0.40;;;9.20;86.50;;;;;;5102549;27;20486;-77
2023/04/20 02:40:53;;;;;;;2.83;1.42;;;9.10;87.10;;;;;;5085678;28;20024;-78
2023/04/20 02:43:19;;;;;;;0.25;0.25;;;9.20;86.80;;;;;;5103069;27;20540;-78
2023/04/20 02:45:45;;;;;;;1.15;1.00;;;9.20;86.90;;;;;;5099694;28;20057;-78
2023/04/20 02:48:10;;;;;;;0.95;0.90;;;9.20;87.30;;;;;;5084718;28;20592;-78
2023/04/20 02:50:37;;;;;;;0.30;0.30;;;9.20;87.40;;;;;;5103352;28;21084;-78
2023/04/20 02:53:03;;;;;;;1.38;0.40;;;9.10;88.10;;;;;;5103579;28;20046;-78
2023/04/20 02:55:28;;;;;;;0.10;0.10;;;9.00;88.00;;;;;;5103935;28;20028;-79
2023/04/20 02:57:54;;;;;;;0.10;0.10;;;9.20;87.80;;;;;;5103406;28;20066;-79
2023/04/20 03:00:20;;;;;;;0.50;0.50;;;9.10;87.90;;;;;;5102950;28;20038;-78
2023/04/20 03:02:46;;;;;;;0.55;0.55;;;9.10;88.00;;;;;;5084065;28;20055;-78
2023/04/20 03:05:12;;;;;;;0.25;0.25;;;9.10;87.80;;;;;;5102935;28;20478;-78
2023/04/20 03:07:37;;;;;;;0.15;0.15;;;9.10;87.90;;;;;;5080780;28;20027;-78
2023/04/20 03:10:05;;;;;;;0.38;0.38;;;9.10;88.60;;;;;;5084568;28;20138;-78
2023/04/20 03:12:30;;;;;;;;;;;9.20;87.90;;;;;;5083466;28;20407;-79
2023/04/20 03:14:56;;;;;;;0.30;0.30;;;9.30;87.30;;;;;;5095818;28;19919;-79
2023/04/20 03:17:22;;;;;;;0.40;0.40;;;9.30;87.50;;;;;;5102675;28;20360;-79
2023/04/20 03:19:48;;;;;;;0.43;0.43;;;9.00;88.80;;;;;;5102482;28;20422;-79
2023/04/20 03:22:13;;;;;;;0.10;0.10;;;9.10;88.50;;;;;;5080510;28;20038;-80
2023/04/20 03:24:39;;;;;;;0.08;0.08;;;9.20;88.20;;;;;;5078048;28;20028;-80
2023/04/20 03:27:05;;;;;;;0.13;0.13;;;9.20;88.20;;;;;;5084561;28;20027;-79
2023/04/20 03:29:30;;;;;;;2.35;0.68;;;9.20;88.00;;;;;;5102099;28;20513;-79
2023/04/20 03:31:56;;;;;;;0.10;0.10;;;9.20;88.00;;;;;;5102498;28;20056;-79
2023/04/20 03:34:22;;;;;;;0.10;0.10;;;9.20;87.90;;;;;;5103571;28;20532;-79
2023/04/20 03:36:48;;;;;;;0.10;0.10;;;9.20;88.00;;;;;;5102180;27;20024;-80
2023/04/20 03:39:13;;;;;;;0.10;0.10;;;9.20;88.40;;;;;;5073232;28;20028;-80
2023/04/20 03:41:39;;;;;;;0.20;0.20;;;9.20;88.30;;;;;;5102817;28;20032;-79
2023/04/20 03:44:06;;;;;;;0.15;0.15;;;9.20;88.40;;;;;;5084666;28;20038;-79
2023/04/20 03:46:31;;;;;;;0.15;0.15;;;9.20;88.30;;;;;;5103225;28;20039;-78
2023/04/20 03:48:57;;;;;;;0.65;0.65;;;9.20;88.20;;;;;;5085122;28;20028;-78
2023/04/20 03:51:22;;;;;;;2.63;1.25;;;9.20;88.20;;;;;;5084847;28;20475;-79
2023/04/20 03:53:48;;;;;;;0.20;0.20;;;9.20;88.30;;;;;;5102963;28;20534;-79
2023/04/20 03:56:14;;;;;;;0.32;0.32;;;9.10;88.60;;;;;;5083532;28;20039;-79
2023/04/20 03:58:39;;;;;;;0.75;0.30;;;9.10;88.90;;;;;;5084643;28;20697;-79
2023/04/20 04:01:09;;;;;;;0.40;0.40;;;9.10;88.90;;;;;;5083580;28;20402;-79
2023/04/20 04:03:35;;;;;;;0.00;0.00;;;9.00;89.00;;;;;;5076866;28;20561;-79
2023/04/20 04:06:02;;;;;;;0.10;0.10;;;9.00;89.40;;;;;;5082235;28;20034;-78
2023/04/20 04:08:27;;;;;;;0.10;0.10;;;8.90;89.80;;;;;;5099802;28;20062;-79
2023/04/20 04:10:53;;;;;;;0.10;0.10;;;8.90;89.90;;;;;;5100437;28;20106;-78
2023/04/20 04:13:19;;;;;;;0.20;0.20;;;8.90;90.00;;;;;;5093732;28;20055;-78
2023/04/20 04:15:45;;;;;;;0.45;0.40;;;8.90;90.00;;;;;;5102263;28;20470;-79
2023/04/20 04:18:10;;;;;;;0.20;0.20;;;8.80;90.10;;;;;;5083010;28;20488;-79
2023/04/20 04:20:36;;;;;;;0.30;0.30;;;8.80;90.10;;;;;;5093166;28;20035;-79
2023/04/20 04:23:02;;;;;;;0.32;0.32;;;8.90;90.00;;;;;;5100672;28;20107;-79
2023/04/20 04:25:28;;;;;;;0.20;0.20;;;8.80;90.10;;;;;;5107563;27;20020;-79
2023/04/20 04:27:54;;;;;;;0.63;0.43;;;8.70;90.30;;;;;;5105118;28;20045;-80
2023/04/20 04:30:20;;;;;;;0.20;0.20;;;8.70;90.30;;;;;;5083934;28;20479;-78
2023/04/20 04:32:45;;;;;;;0.40;0.40;;;8.70;90.30;;;;;;5105037;27;20066;-78
2023/04/20 04:35:12;;;;;;;1.75;0.98;;;8.70;90.40;;;;;;5100981;28;20028;-78
2023/04/20 04:37:38;;;;;;;0.25;0.25;;;8.80;90.40;;;;;;5083763;28;20035;-78
2023/04/20 04:40:07;;;;;;;0.10;0.10;;;8.60;90.80;;;;;;5111785;28;20096;-78
2023/04/20 04:42:34;;;;;;;0.10;0.10;;;8.60;90.90;;;;;;5106113;28;20095;-80
2023/04/20 04:45:01;;;;;;;0.10;0.10;;;8.40;91.10;;;;;;5081889;28;20032;-79
2023/04/20 04:47:30;;;;;;;0.10;0.10;;;8.30;91.60;;;;;;5094919;28;20775;-79
2023/04/20 04:49:56;;;;;;;0.38;0.38;;;8.20;91.90;;;;;;5068856;28;20062;-78
2023/04/20 04:52:22;;;;;;;0.15;0.15;;;8.10;92.50;;;;;;5100668;28;20798;-79
2023/04/20 04:54:48;;;;;;;0.30;0.30;;;8.10;92.50;;;;;;5091682;28;20093;-79
2023/04/20 04:57:14;;;;;;;0.10;0.10;;;8.00;92.70;;;;;;5087672;28;20463;-78
2023/04/20 04:59:40;;;;;;;0.10;0.10;;;7.90;93.10;;;;;;5097344;27;20149;-78
2023/04/20 05:02:06;;;;;;;0.85;0.55;;;7.80;93.20;;;;;;5092589;27;20106;-79
2023/04/20 05:04:31;;;;;;;0.45;0.43;;;7.70;93.50;;;;;;5100345;27;20074;-79
2023/04/20 05:06:57;;;;;;;0.40;0.40;;;7.70;93.80;;;;;;5084354;28;20504;-79
2023/04/20 05:09:23;;;;;;;0.00;0.00;;;7.70;93.90;;;;;;5087598;28;20032;-79
2023/04/20 05:11:48;;;;;;;0.35;0.35;;;7.60;94.00;;;;;;5103005;28;20527;-79
2023/04/20 05:14:14;;;;;;;0.20;0.20;;;7.60;94.10;;;;;;5085976;28;20037;-78
2023/04/20 05:16:40;;;;;;;0.30;0.20;;;7.70;94.10;;;;;;5099823;28;20028;-79
2023/04/20 05:19:05;;;;;;;0.32;0.32;;;8.00;93.50;;;;;;5104790;28;20031;-79
2023/04/20 05:21:31;;;;;;;0.22;0.22;;;8.80;92.00;;;;;;5101146;28;20100;-79
2023/04/20 05:23:57;;;;;;;0.20;0.20;;;9.40;90.50;;;;;;5073777;28;20036;-80
2023/04/20 05:26:23;;;;;;;0.20;0.20;;;9.60;90.00;;;;;;5089482;28;20024;-79
2023/04/20 05:28:48;;;;;;;0.40;0.40;;;9.80;89.60;;;;;;5095551;28;20573;-79
2023/04/20 05:31:14;;;;;;;0.30;0.30;;;10.50;86.40;;;;;;5103813;28;20840;-78
2023/04/20 05:33:40;;;;;;;0.13;0.13;;;10.80;85.10;;;;;;5095534;27;20047;-78
2023/04/20 05:36:09;;;;;;;0.20;0.20;;;11.20;83.80;;;;;;5084107;28;20031;-79
2023/04/20 05:38:35;;;;;;;0.10;0.10;;;11.40;83.00;;;;;;5105656;27;20027;-83
2023/04/20 05:41:00;;;;;;;0.15;0.15;;;11.80;81.30;;;;;;5082007;28;20043;-77
2023/04/20 05:43:26;;;;;;;0.10;0.10;;;12.10;80.40;;;;;;5099084;28;20031;-78
2023/04/20 05:45:52;;;;;;;0.38;0.38;;;12.50;79.40;;;;;;5103061;28;20121;-79
2023/04/20 05:48:17;;;;;;;0.87;0.60;;;12.70;78.80;;;;;;5103165;28;20031;-78
2023/04/20 05:50:43;;;;;;;0.10;0.10;;;13.10;77.10;;;;;;5089320;28;20080;-78
2023/04/20 05:53:09;;;;;;;0.17;0.17;;;13.20;76.90;;;;;;5099918;27;20040;-78
2023/04/20 05:55:34;;;;;;;0.10;0.10;;;13.90;75.50;;;;;;5103009;28;20074;-79
2023/04/20 05:58:00;;;;;;;0.20;0.20;;;14.00;75.00;;;;;;5113364;27;20027;-81
2023/04/20 06:00:26;;;;;;;0.10;0.10;;;14.30;74.30;;;;;;5098514;28;20546;-81
2023/04/20 06:02:53;;;;;;;0.10;0.10;;;14.50;73.70;;;;;;5102139;28;20776;-79
2023/04/20 06:05:20;;;;;;;0.10;0.10;;;14.60;73.00;;;;;;5101906;27;20042;-80
2023/04/20 06:07:46;;;;;;;0.10;0.10;;;14.80;72.90;;;;;;5079542;28;20023;-82
2023/04/20 06:10:11;;;;;;;0.00;0.00;;;15.00;72.10;;;;;;5078914;28;20031;-80
2023/04/20 06:12:37;;;;;;;0.10;0.10;;;15.20;71.30;;;;;;5087443;28;20039;-80
2023/04/20 06:15:07;;;;;;;0.47;0.47;;;15.00;72.10;;;;;;5085564;28;20085;-80
2023/04/20 06:17:35;;;;;;;0.20;0.20;;;15.60;70.50;;;;;;5068354;28;20066;-80
2023/04/20 06:20:00;;;;;;;0.17;0.17;;;16.10;68.50;;;;;;5074660;28;20032;-80
2023/04/20 06:22:26;;;;;;;0.20;0.20;;;16.20;68.20;;;;;;5087983;28;20017;-80
2023/04/20 06:24:52;;;;;;;0.03;0.03;;;16.30;67.60;;;;;;5088059;28;20470;-80
2023/04/20 06:27:17;;;;;;;0.03;0.03;;;16.30;68.30;;;;;;5086370;28;21209;-80
2023/04/20 06:29:43;;;;;;;0.00;0.00;;;16.40;67.70;;;;;;5086251;28;20027;-80
2023/04/20 06:32:09;;;;;;;0.40;0.40;;;16.70;66.50;;;;;;5093321;27;20043;-80
2023/04/20 06:34:35;;;;;;;0.27;0.27;;;16.90;65.70;;;;;;5081704;28;20027;-80
2023/04/20 06:37:00;;;;;;;0.00;0.00;;;17.60;64.40;;;;;;5102436;28;20027;-80
2023/04/20 06:39:26;;;;;;;0.20;0.20;;;17.90;64.10;;;;;;5100600;28;20027;-80
2023/04/20 06:41:52;;;;;;;0.00;0.00;;;18.30;62.80;;;;;;5084509;28;20063;-80
2023/04/20 06:44:17;;;;;;;2.53;0.63;;;18.40;62.30;;;;;;5080636;28;20115;-80
2023/04/20 06:46:43;;;;;;;0.33;0.33;;;18.40;61.70;;;;;;5085182;28;20031;-80
2023/04/20 06:49:09;;;;;;;0.10;0.10;;;18.40;61.60;;;;;;5085856;28;20479;-81
2023/04/20 06:51:34;;;;;;;0.87;0.63;;;18.60;61.00;;;;;;5068661;28;20471;-81
2023/04/20 06:54:00;;;;;;;0.10;0.10;;;19.10;59.90;;;;;;5079887;28;20028;-81
2023/04/20 06:56:26;;;;;;;0.00;0.00;;;19.20;60.10;;;;;;5096485;28;20047;-81
2023/04/20 06:58:52;;;;;;;0.00;0.00;;;19.70;59.40;;;;;;5084868;28;20720;-81
2023/04/20 07:01:17;;;;;;;0.20;0.20;;;19.70;59.50;;;;;;5068468;28;20944;-81
2023/04/20 07:03:45;;;;;;;0.00;0.00;;;19.70;59.10;;;;;;5090133;27;20561;-80
2023/04/20 07:06:11;;;;;;;0.10;0.10;;;19.70;59.50;;;;;;5109851;27;20127;-80
2023/04/20 07:08:38;;;;;;;0.20;0.20;;;20.30;58.20;;;;;;5074550;28;20028;-81
2023/04/20 07:11:04;;;;;;;1.85;1.10;;;20.50;58.70;;;;;;5080606;27;20020;-81
2023/04/20 07:13:30;;;;;;;0.00;0.00;;;20.50;57.50;;;;;;5084132;28;20031;-81
2023/04/20 07:15:56;;;;;;;0.10;0.10;;;20.70;58.20;;;;;;5084061;27;20126;-81
2023/04/20 07:18:22;;;;;;;0.35;0.30;;;20.80;56.60;;;;;;5103574;28;20042;-81
2023/04/20 07:20:48;;;;;;;0.77;0.73;;;21.00;55.50;;;;;;5102659;28;20031;-81
2023/04/20 07:23:13;;;;;;;0.00;0.00;;;21.20;54.80;;;;;;5103659;28;20030;-81
2023/04/20 07:25:39;;;;;;;0.00;0.00;;;21.40;53.90;;;;;;5101255;28;20497;-81
2023/04/20 07:28:05;;;;;;;0.20;0.20;;;21.30;54.40;;;;;;5084997;28;20034;-81
2023/04/20 07:30:31;;;;;;;0.00;0.00;;;21.70;54.90;;;;;;5084437;28;20417;-82
2023/04/20 07:32:56;;;;;;;0.10;0.10;;;21.70;54.00;;;;;;5076175;28;20221;-81
2023/04/20 07:35:22;;;;;;;0.10;0.10;;;22.00;53.30;;;;;;5100845;28;20058;-81
2023/04/20 07:37:48;;;;;;;0.10;0.10;;;21.90;52.30;;;;;;5094065;28;20281;-81
2023/04/20 07:40:15;;;;;;;0.20;0.20;;;22.30;52.20;;;;;;5103185;28;20027;-81
2023/04/20 07:42:41;;;;;;;0.10;0.10;;;22.40;51.30;;;;;;5093800;28;20343;-81
2023/04/20 07:45:09;;;;;;;0.57;0.57;;;22.40;52.60;;;;;;5102689;28;20028;-82
2023/04/20 07:47:35;;;;;;;0.08;0.08;;;22.70;52.50;;;;;;5084391;28;20031;-81
2023/04/20 07:50:01;;;;;;;0.00;0.00;;;22.80;51.40;;;;;;5083801;28;20023;-81
2023/04/20 07:52:27;;;;;;;0.10;0.10;;;22.70;52.10;;;;;;5078483;28;20132;-81
2023/04/20 07:54:52;;;;;;;0.00;0.00;;;22.60;51.00;;;;;;5101496;28;20692;-82
2023/04/20 07:57:19;;;;;;;0.23;0.20;;;23.40;51.20;;;;;;5083206;28;20034;-81
2023/04/20 07:59:45;;;;;;;0.13;0.13;;;23.70;49.10;;;;;;5083681;28;20051;-81
2023/04/20 08:02:11;;;;;;;0.10;0.10;;;24.20;48.60;;;;;;5083195;28;20469;-82
2023/04/20 08:04:37;;;;;;;0.45;0.45;;;24.40;48.00;;;;;;5102265;28;20592;-81
2023/04/20 08:07:03;;;;;;;0.90;0.80;;;24.60;47.90;;;;;;5099253;28;20032;-82
2023/04/20 08:09:28;;;;;;;0.00;0.00;;;24.70;46.80;;;;;;5081178;28;20123;-82
2023/04/20 08:11:55;;;;;;;0.10;0.10;;;24.80;46.00;;;;;;5075085;28;20032;-82
2023/04/20 08:14:20;;;;;;;;;;;24.10;47.80;;;;;;5097622;28;20122;-82
2023/04/20 08:16:46;;;;;;;0.00;0.00;;;25.20;46.80;;;;;;5083869;28;19983;-81
2023/04/20 08:19:12;;;;;;;0.00;0.00;;;25.50;45.40;;;;;;5069064;28;20143;-82
2023/04/20 08:21:39;;;;;;;0.17;0.17;;;26.00;45.70;;;;;;5094125;28;20073;-82
2023/04/20 08:24:06;;;;;;;0.20;0.20;;;26.00;46.60;;;;;;5090551;27;20502;-82
2023/04/20 08:26:32;;;;;;;0.05;0.05;;;25.00;45.70;;;;;;5079963;27;20058;-82
2023/04/20 08:28:59;;;;;;;0.00;0.00;;;25.70;45.10;;;;;;5092074;27;20023;-82
2023/04/20 08:31:25;;;;;;;0.20;0.20;;;26.60;44.80;;;;;;5081540;27;20047;-82
2023/04/20 08:33:51;;;;;;;1.10;0.52;;;27.40;42.70;;;;;;5104887;27;20089;-82
2023/04/20 08:36:17;;;;;;;0.08;0.08;;;28.50;42.80;;;;;;5110695;27;20123;-82
2023/04/20 08:38:43;;;;;;;;;;;27.90;42.80;;;;;;5068630;28;20118;-82
2023/04/20 08:41:12;;;;;;;0.00;0.00;;;29.20;43.10;;;;;;5116986;28;20015;-82
2023/04/20 08:43:38;;;;;;;0.10;0.10;;;29.00;43.70;;;;;;5096197;28;20835;-82
2023/04/20 08:46:04;;;;;;;0.00;0.00;;;29.30;42.00;;;;;;5110747;28;20028;-82
2023/04/20 08:48:34;;;;;;;;;;;29.30;41.20;;;;;;5077060;28;20024;-82
2023/04/20 08:51:01;;;;;;;0.10;0.10;;;28.50;42.70;;;;;;5081290;28;19994;-82
2023/04/20 08:53:26;;;;;;;0.28;0.28;;;27.70;41.70;;;;;;5077993;28;20028;-82
2023/04/20 08:55:55;;;;;;;0.30;0.30;;;28.60;39.30;;;;;;5098221;28;20084;-82
2023/04/20 08:58:23;;;;;;;0.10;0.10;;;29.60;42.60;;;;;;5081017;28;20024;-82
2023/04/20 09:00:49;;;;;;;0.00;0.00;;;29.50;40.70;;;;;;5077490;28;20016;-82
2023/04/20 09:03:14;;;;;;;0.00;0.00;;;28.20;43.00;;;;;;5083538;28;20023;-82
2023/04/20 09:05:42;;;;;;;0.28;0.28;;;28.40;43.40;;;;;;5095863;28;20035;-82
2023/04/20 09:08:08;;;;;;;0.10;0.10;;;29.20;42.40;;;;;;5077191;28;20024;-82
2023/04/20 09:10:42;;;;;;;0.73;0.45;;;29.20;41.70;;;;;;5078229;28;20028;-82
2023/04/20 09:13:19;;;;;;;0.17;0.17;;;27.50;41.20;;;;;;5098417;28;20508;-82
2023/04/20 09:15:45;;;;;;;0.20;0.20;;;29.20;40.50;;;;;;5083422;28;20371;-82
2023/04/20 09:18:14;;;;;;;0.00;0.00;;;30.30;39.60;;;;;;5073594;28;20038;-82
2023/04/20 09:20:40;;;;;;;0.25;0.25;;;28.30;38.00;;;;;;5097260;28;20486;-81
2023/04/20 09:23:20;;;;;;;0.00;0.00;;;29.50;39.70;;;;;;5078319;28;20032;-80
2023/04/20 09:25:51;;;;;;;0.10;0.10;;;30.40;37.80;;;;;;5093362;28;20692;-86
2023/04/20 09:28:18;;;;;;;0.70;0.43;;;29.20;38.70;;;;;;5080081;28;20193;-80
2023/04/20 09:30:47;;;;;;;0.93;0.63;;;29.20;38.20;;;;;;5078047;28;20036;-80
2023/04/20 09:33:13;;;;;;;0.03;0.03;;;30.20;38.40;;;;;;5109376;28;20048;-80
2023/04/20 09:35:40;;;;;;;;;;;29.10;38.30;;;;;;5098971;28;20490;-79
2023/04/20 09:38:07;;;;;;;0.90;0.35;;;31.00;38.90;;;;;;5075570;28;19911;-79
2023/04/20 09:40:34;;;;;;;0.00;0.00;;;30.80;39.00;;;;;;5094624;28;20031;-80
2023/04/20 09:43:08;;;;;;;0.00;0.00;;;30.40;37.50;;;;;;5097773;28;20084;-80
2023/04/20 09:45:36;;;;;;;0.13;0.13;;;31.20;37.60;;;;;;5096608;28;20100;-80
2023/04/20 09:48:07;;;;;;;0.10;0.10;;;31.20;37.50;;;;;;5086308;27;20024;-80
2023/04/20 09:50:36;;;;;;;0.10;0.10;;;32.00;38.50;;;;;;5100361;28;20078;-82
2023/04/20 09:53:03;;;;;;;0.00;0.00;;;32.50;38.30;;;;;;5081854;28;20034;-80
2023/04/20 09:55:30;;;;;;;0.13;0.13;;;30.70;37.70;;;;;;5080153;28;20114;-83
2023/04/20 09:57:57;;;;;;;0.05;0.05;;;31.20;39.10;;;;;;5104631;28;20023;-82
2023/04/20 10:00:23;;;;;;;0.00;0.00;;;29.80;38.40;;;;;;5101624;28;20019;-82
2023/04/20 10:02:50;;;;;;;0.93;0.30;;;30.80;37.00;;;;;;5097918;28;20111;-82
2023/04/20 10:05:15;;;;;;;0.00;0.00;;;30.60;38.60;;;;;;5093411;28;20034;-83
2023/04/20 10:07:42;;;;;;;0.00;0.00;;;31.20;38.50;;;;;;5079548;28;20020;-84
2023/04/20 10:10:11;;;;;;;0.00;0.00;;;31.50;39.40;;;;;;5087884;27;20607;-82
2023/04/20 10:12:51;;;;;;;0.00;0.00;;;29.80;36.60;;;;;;5085854;28;20553;-82
2023/04/20 10:15:17;;;;;;;0.00;0.00;;;29.90;38.70;;;;;;5108040;27;20136;-82
2023/04/20 10:17:43;;;;;;;0.15;0.15;;;30.10;38.30;;;;;;5090077;28;20126;-82
2023/04/20 10:20:22;;;;;;;0.00;0.00;;;27.50;39.00;;;;;;5099936;28;20064;-83
2023/04/20 10:22:50;;;;;;;0.00;0.00;;;25.90;41.40;;;;;;5093003;28;20113;-82
2023/04/20 10:25:23;;;;;;;0.00;0.00;;;25.90;42.10;;;;;;5101770;28;20413;-83
2023/04/20 10:28:03;;;;;;;0.28;0.28;;;26.40;43.20;;;;;;5102191;28;20557;-82
2023/04/20 10:30:29;;;;;;;0.25;0.25;;;25.10;48.10;;;;;;5084204;28;20040;-82
2023/04/20 10:33:21;;;;;;;;;;;25.10;46.40;;;;;;5082612;28;20422;-83
2023/04/20 10:35:53;;;;;;;0.08;0.08;;;24.80;49.60;;;;;;5079725;28;20471;-82
2023/04/20 10:38:35;;;;;;;0.15;0.15;;;24.30;47.40;;;;;;5084259;28;20020;-82
2023/04/20 10:41:12;;;;;;;0.00;0.00;;;24.60;49.30;;;;;;5080574;28;20019;-81
2023/04/20 10:43:41;;;;;;;0.10;0.10;;;25.20;49.80;;;;;;5080610;28;20035;-82
2023/04/20 10:46:20;;;;;;;0.00;0.00;;;24.70;50.90;;;;;;5109853;28;20016;-83
2023/04/20 10:48:50;;;;;;;0.15;0.15;;;24.60;44.50;;;;;;5100289;28;20510;-82
2023/04/20 10:51:17;;;;;;;0.00;0.00;;;25.70;47.50;;;;;;5083394;28;20150;-81
2023/04/20 10:53:43;;;;;;;0.00;0.00;;;25.30;45.10;;;;;;5077227;28;20058;-81
2023/04/20 10:56:09;;;;;;;0.00;0.00;;;24.70;44.00;;;;;;5101372;27;20023;-81
2023/04/20 10:58:35;;;;;;;0.10;0.10;;;25.50;47.40;;;;;;5108253;27;20019;-81
2023/04/20 11:01:05;;;;;;;0.10;0.10;;;26.20;46.50;;;;;;5080695;28;20042;-81
2023/04/20 11:03:33;;;;;;;0.17;0.17;;;25.10;46.30;;;;;;5091198;28;20812;-81
2023/04/20 11:06:02;;;;;;;0.40;0.40;;;24.90;48.30;;;;;;5084501;28;20024;-81
2023/04/20 11:08:42;;;;;;;0.10;0.10;;;24.50;48.60;;;;;;5090608;28;20052;-81
2023/04/20 11:11:29;;;;;;;0.08;0.05;;;24.80;49.40;;;;;;5074351;28;20028;-80
2023/04/20 11:14:08;;;;;;;0.55;0.55;;;24.90;50.40;;;;;;5093749;28;20502;-81
2023/04/20 11:16:35;;;;;;;0.95;0.43;;;25.40;51.80;;;;;;5078127;28;20036;-82
2023/04/20 11:19:02;;;;;;;0.08;0.08;;;24.90;48.30;;;;;;5079150;27;20475;-82
2023/04/20 11:21:38;;;;;;;0.40;0.30;;;25.50;51.30;;;;;;5082121;28;20539;-81
2023/04/20 11:24:16;;;;;;;0.00;0.00;;;26.10;53.30;;;;;;5100582;28;20494;-82
2023/04/20 11:26:42;;;;;;;0.00;0.00;;;26.20;49.60;;;;;;5099551;28;20023;-82
2023/04/20 11:29:08;;;;;;;0.63;0.63;;;26.10;49.60;;;;;;5079333;28;20476;-85
2023/04/20 11:31:35;;;;;;;0.00;0.00;;;26.20;48.60;;;;;;5079978;28;20054;-81
2023/04/20 11:34:01;;;;;;;0.00;0.00;;;25.40;48.50;;;;;;5095051;28;20112;-80
2023/04/20 11:36:28;;;;;;;0.15;0.15;;;25.30;51.70;;;;;;5094780;28;20427;-80
2023/04/20 11:38:57;;;;;;;0.10;0.10;;;25.10;48.30;;;;;;5094860;28;20024;-82
2023/04/20 11:41:23;;;;;;;0.22;0.20;;;25.20;47.50;;;;;;5096443;28;20032;-84
2023/04/20 11:43:49;;;;;;;0.00;0.00;;;24.90;51.70;;;;;;5100882;28;20028;-82
2023/04/20 11:46:20;;;;;;;0.45;0.30;;;24.80;47.50;;;;;;5101855;28;20020;-78
2023/04/20 11:48:46;;;;;;;0.17;0.17;;;24.50;50.30;;;;;;5083836;28;20024;-78
2023/04/20 11:51:13;;;;;;;0.00;0.00;;;25.10;52.70;;;;;;5079584;28;20848;-78
2023/04/20 11:53:39;;;;;;;;;;;25.60;54.60;;;;;;5101548;28;20513;-78
2023/04/20 11:56:05;;;;;;;0.22;0.22;;;24.70;46.10;;;;;;5095686;27;19907;-78
2023/04/20 11:58:31;;;;;;;0.10;0.10;;;24.60;48.60;;;;;;5074089;28;20401;-78
2023/04/20 12:00:56;;;;;;;0.17;0.17;;;24.60;48.40;;;;;;5092130;28;20100;-78
2023/04/20 12:03:22;;;;;;;0.03;0.03;;;24.30;50.10;;;;;;5112685;27;21174;-78
2023/04/20 12:05:48;;;;;;;0.10;0.10;;;24.30;48.40;;;;;;5097291;28;20118;-78
2023/04/20 12:08:16;;;;;;;0.10;0.10;;;24.60;51.60;;;;;;5095128;28;20024;-78
2023/04/20 12:10:41;;;;;;;0.10;0.10;;;24.90;51.90;;;;;;5091117;27;20698;-78
2023/04/20 12:13:07;;;;;;;0.00;0.00;;;24.80;50.30;;;;;;5070098;28;20807;-78
2023/04/20 12:15:33;;;;;;;0.30;0.30;;;24.90;48.60;;;;;;5095228;28;20047;-78
2023/04/20 12:17:59;;;;;;;0.10;0.10;;;25.00;52.50;;;;;;5089629;28;20255;-78
2023/04/20 12:20:24;;;;;;;0.23;0.23;;;24.20;46.60;;;;;;5098085;28;20030;-78
2023/04/20 12:22:50;;;;;;;0.30;0.20;;;23.20;47.10;;;;;;5096395;27;20039;-78
2023/04/20 12:25:16;;;;;;;0.33;0.20;;;23.00;47.10;;;;;;5087201;27;20056;-78
2023/04/20 12:27:41;;;;;;;0.00;0.00;;;22.70;48.40;;;;;;5075981;28;20338;-78
2023/04/20 12:30:08;;;;;;;0.00;0.00;;;22.60;49.30;;;;;;5094688;28;20266;-77
2023/04/20 12:32:34;;;;;;;2.08;0.38;;;22.40;48.30;;;;;;5103519;27;20078;-77
2023/04/20 12:35:01;;;;;;;0.00;0.00;;;22.20;47.30;;;;;;5098066;28;20515;-78
2023/04/20 12:37:27;;;;;;;0.38;0.38;;;22.30;48.20;;;;;;5094341;28;20023;-77
2023/04/20 12:39:52;;;;;;;0.43;0.40;;;22.50;47.40;;;;;;5097175;28;20112;-78
2023/04/20 12:42:18;;;;;;;0.33;0.33;;;22.40;46.90;;;;;;5097173;28;20476;-83
2023/04/20 12:44:44;;;;;;;0.10;0.10;;;22.80;46.80;;;;;;5085766;28;20056;-77
2023/04/20 12:47:12;;;;;;;0.73;0.60;;;23.30;46.10;;;;;;5090142;28;20273;-77